Time;durP1;ratioP1;P1;durP2;ratioP2;P2;SDS_P1;SDS_P2;PMS_P1;PMS_P2;Temp;Humidity;BMP_temperature;BMP_pressure;BME280_temperature;BME280_humidity;BME280_pressure;Samples;Min_cycle;Max_cycle;Signal;HPM_P1;HPM_P2
2021/04/10 00:03:40;;;;;;;6.80;4.80;;;;;;;13.51;46.89;99656.31;10362636;28;20126;-58
2021/04/10 00:08:41;;;;;;;6.68;4.30;;;;;;;13.54;46.41;99643.47;10361828;28;20053;-58
2021/04/10 00:13:42;;;;;;;6.63;4.43;;;;;;;13.52;47.56;99653.47;10368795;28;20337;-58
2021/04/10 00:18:43;;;;;;;8.68;7.45;;;;;;;13.43;50.29;99644.56;10371229;28;20049;-58
2021/04/10 00:23:44;;;;;;;9.27;7.07;;;;;;;13.36;51.00;99632.81;10369067;28;20129;-58
2021/04/10 00:28:45;;;;;;;9.38;7.97;;;;;;;13.41;51.80;99635.84;10369689;28;20061;-58
2021/04/10 00:33:47;;;;;;;10.15;6.95;;;;;;;13.09;53.08;99593.69;10369321;28;20060;-57
2021/04/10 00:38:48;;;;;;;10.20;6.30;;;;;;;13.28;53.07;99640.75;10370499;28;20049;-61
2021/04/10 00:43:49;;;;;;;6.53;5.88;;;;;;;13.20;52.96;99627.34;10374251;28;20129;-59
2021/04/10 00:48:50;;;;;;;8.88;6.28;;;;;;;13.17;53.70;99638.34;10376038;28;20140;-57
2021/04/10 00:53:51;;;;;;;6.47;5.63;;;;;;;13.18;52.42;99640.00;10379267;28;20407;-60
2021/04/10 00:58:52;;;;;;;6.25;5.40;;;;;;;13.05;52.90;99645.75;10375093;28;20524;-57
2021/04/10 01:03:54;;;;;;;5.10;4.30;;;;;;;13.04;51.49;99650.25;10372871;28;20072;-58
2021/04/10 01:08:54;;;;;;;10.93;4.72;;;;;;;13.02;51.67;99657.59;10372916;28;20053;-58
2021/04/10 01:14:03;;;;;;;6.28;4.88;;;;;;;12.95;52.58;99656.50;10362980;28;20041;-58
2021/04/10 01:19:20;;;;;;;5.63;4.55;;;;;;;12.79;54.93;99678.59;10370282;28;20476;-57
2021/04/10 01:24:49;;;;;;;6.07;3.88;;;;;;;12.75;57.23;99655.00;10365270;28;20125;-57
2021/04/10 01:29:54;;;;;;;6.25;4.38;;;;;;;12.50;58.14;99644.91;10361745;28;20069;-58
2021/04/10 01:35:01;;;;;;;9.25;4.75;;;;;;;12.48;60.64;99648.72;10363818;28;20046;-59
2021/04/10 01:40:05;;;;;;;8.95;4.63;;;;;;;12.40;61.73;99669.97;10366088;28;20068;-56
2021/04/10 01:45:08;;;;;;;5.60;3.95;;;;;;;12.31;61.73;99664.56;10374947;28;20057;-58
2021/04/10 01:50:09;;;;;;;5.10;4.60;;;;;;;12.12;63.85;99664.66;10364682;28;20049;-57
2021/04/10 01:55:11;;;;;;;6.78;5.30;;;;;;;12.11;64.93;99671.81;10368228;28;20736;-57
2021/04/10 02:00:15;;;;;;;5.97;5.28;;;;;;;12.08;65.51;99673.94;10374902;28;20057;-59
2021/04/10 02:05:16;;;;;;;;;;;;;;;11.95;66.09;99669.78;10364607;28;20053;-57
2021/04/10 02:10:23;;;;;;;7.45;5.47;;;;;;;11.94;66.63;99670.75;10375593;28;20363;-58
2021/04/10 02:15:24;;;;;;;7.65;5.97;;;;;;;11.84;67.04;99651.25;10368046;28;20116;-60
2021/04/10 02:20:25;;;;;;;7.93;6.00;;;;;;;11.82;67.59;99654.06;10364572;28;20667;-61
2021/04/10 02:25:26;;;;;;;7.20;6.10;;;;;;;11.62;67.62;99645.31;10368141;28;20053;-59
2021/04/10 02:30:28;;;;;;;8.00;6.43;;;;;;;11.73;68.15;99664.78;10364730;28;20055;-59
2021/04/10 02:35:29;;;;;;;7.32;6.43;;;;;;;11.70;67.64;99654.41;10371403;28;20057;-59
2021/04/10 02:40:38;;;;;;;8.45;7.18;;;;;;;11.74;67.61;99661.13;10365008;28;20479;-58
2021/04/10 02:45:40;;;;;;;7.80;7.00;;;;;;;11.61;68.12;99650.78;10357700;28;20048;-57
2021/04/10 02:50:42;;;;;;;10.80;7.85;;;;;;;11.61;68.16;99670.28;10366441;28;20642;-60
2021/04/10 02:55:46;;;;;;;11.00;7.97;;;;;;;11.53;69.00;99670.16;10353683;28;20119;-56
2021/04/10 03:00:48;;;;;;;10.03;8.17;;;;;;;11.36;69.56;99662.91;10357752;28;20056;-60
2021/04/10 03:05:49;;;;;;;9.10;8.20;;;;;;;11.27;69.23;99673.44;10361357;28;20100;-55
2021/04/10 03:10:52;;;;;;;9.60;8.65;;;;;;;11.26;69.09;99676.22;10356452;28;20420;-57
2021/04/10 03:15:54;;;;;;;9.95;8.73;;;;;;;11.20;68.74;99675.00;10363542;28;20077;-57
2021/04/10 03:20:55;;;;;;;10.27;8.93;;;;;;;11.14;69.02;99672.91;10365052;28;20434;-59
2021/04/10 03:26:01;;;;;;;11.15;9.30;;;;;;;11.12;69.06;99672.19;10367235;28;20057;-56
2021/04/10 03:31:02;;;;;;;13.43;8.50;;;;;;;11.04;68.93;99675.56;10366629;28;20133;-57
2021/04/10 03:36:05;;;;;;;10.20;9.23;;;;;;;10.82;69.26;99643.88;10359053;28;20064;-60
2021/04/10 03:41:07;;;;;;;10.00;9.10;;;;;;;10.93;68.84;99657.06;10364469;28;20046;-58
2021/04/10 03:46:08;;;;;;;11.77;10.25;;;;;;;11.08;68.65;99673.44;10361428;22;20062;-61
2021/04/10 03:51:09;;;;;;;9.52;8.73;;;;;;;10.98;69.10;99675.28;10348264;28;20153;-62
2021/04/10 03:56:10;;;;;;;10.30;9.25;;;;;;;10.95;69.10;99671.91;10354486;28;20125;-61
2021/04/10 04:01:11;;;;;;;10.15;9.15;;;;;;;10.87;69.80;99665.59;10348630;28;20564;-61
2021/04/10 04:06:12;;;;;;;10.05;9.15;;;;;;;10.88;68.68;99685.91;10335886;28;20526;-61
2021/04/10 04:11:13;;;;;;;11.68;10.52;;;;;;;10.77;69.90;99665.59;10342835;28;20522;-61
2021/04/10 04:16:14;;;;;;;15.88;10.73;;;;;;;10.72;70.24;99697.09;10341038;28;20085;-62
2021/04/10 04:21:15;;;;;;;11.13;10.00;;;;;;;10.73;70.77;99693.47;10344512;28;20422;-61
2021/04/10 04:26:16;;;;;;;12.43;11.23;;;;;;;10.72;71.21;99697.09;10345258;28;20112;-61
2021/04/10 04:31:19;;;;;;;11.20;10.10;;;;;;;10.77;70.81;99711.69;10353175;28;20385;-61
2021/04/10 04:36:20;;;;;;;12.85;11.63;;;;;;;10.77;71.48;99711.69;10336393;28;20553;-61
2021/04/10 04:41:22;;;;;;;14.77;12.80;;;;;;;10.73;71.37;99715.63;10344475;28;20057;-61
2021/04/10 04:46:23;;;;;;;12.38;11.23;;;;;;;10.75;70.79;99729.63;10345908;28;20375;-62
2021/04/10 04:51:24;;;;;;;13.32;12.02;;;;;;;10.77;71.09;99748.13;10340967;28;20041;-61
2021/04/10 04:56:25;;;;;;;14.52;13.02;;;;;;;10.70;71.46;99752.31;10348262;28;20069;-61
2021/04/10 05:01:26;;;;;;;14.20;12.90;;;;;;;10.71;71.10;99764.66;10354538;28;20205;-61
2021/04/10 05:06:27;;;;;;;14.57;12.70;;;;;;;10.68;71.49;99764.94;10347405;28;20053;-61
2021/04/10 05:11:28;;;;;;;14.18;12.73;;;;;;;10.65;71.73;99779.34;10341734;28;20054;-65
2021/04/10 05:16:30;;;;;;;14.27;12.98;;;;;;;10.61;71.61;99794.75;10337498;28;20112;-63
2021/04/10 05:21:31;;;;;;;13.93;12.52;;;;;;;10.62;71.83;99792.91;10339607;28;20050;-63
2021/04/10 05:26:32;;;;;;;13.70;12.40;;;;;;;10.63;71.56;99809.72;10345368;28;20507;-63
2021/04/10 05:31:33;;;;;;;14.85;11.95;;;;;;;10.57;71.33;99819.13;10340016;28;20061;-62
2021/04/10 05:36:34;;;;;;;14.68;13.27;;;;;;;10.55;72.15;99823.72;10349714;28;20392;-64
2021/04/10 05:41:35;;;;;;;15.77;14.07;;;;;;;10.53;72.13;99826.50;10339302;28;20054;-63
2021/04/10 05:46:36;;;;;;;14.65;13.15;;;;;;;10.54;72.03;99833.53;10307140;28;20049;-63
2021/04/10 05:51:37;;;;;;;15.43;13.95;;;;;;;10.56;71.93;99834.22;10308063;28;20058;-63
2021/04/10 05:56:38;;;;;;;15.13;13.60;;;;;;;10.64;71.44;99832.72;10307385;28;20127;-63
2021/04/10 06:01:39;;;;;;;14.88;13.43;;;;;;;10.66;72.06;99849.38;10301636;28;20073;-64
2021/04/10 06:06:40;;;;;;;14.20;12.70;;;;;;;10.69;71.47;99851.78;10300459;28;20143;-62
2021/04/10 06:11:41;;;;;;;14.15;12.75;;;;;;;10.63;71.99;99862.97;10310521;28;20068;-62
2021/04/10 06:16:42;;;;;;;14.48;12.98;;;;;;;10.56;71.88;99863.50;10305392;28;20515;-63
2021/04/10 06:21:43;;;;;;;13.55;12.15;;;;;;;10.57;72.14;99864.34;10310551;28;20147;-63
2021/04/10 06:26:45;;;;;;;14.05;12.65;;;;;;;10.63;72.32;99874.47;10307703;28;20054;-62
2021/04/10 06:31:46;;;;;;;13.75;12.35;;;;;;;10.65;72.28;99869.00;10307789;28;20540;-63
2021/04/10 06:36:48;;;;;;;14.40;13.02;;;;;;;10.77;71.70;99863.44;10306294;28;20147;-61
2021/04/10 06:41:49;;;;;;;14.38;12.75;;;;;;;10.71;72.92;99874.63;10308178;28;20086;-61
2021/04/10 06:46:51;;;;;;;14.80;13.32;;;;;;;10.64;72.61;99872.63;10303784;28;20069;-62
2021/04/10 06:51:53;;;;;;;15.35;13.88;;;;;;;10.71;72.84;99882.63;10306037;28;20046;-63
2021/04/10 06:57:18;;;;;;;16.35;14.75;;;;;;;10.72;73.17;99883.44;10307365;28;20164;-63
2021/04/10 07:02:19;;;;;;;15.68;13.68;;;;;;;10.80;73.10;99880.97;10290942;28;20131;-63
2021/04/10 07:07:25;;;;;;;16.90;15.15;;;;;;;10.87;72.78;99884.78;10301020;28;20132;-63
2021/04/10 07:12:26;;;;;;;16.40;14.57;;;;;;;10.93;73.16;99889.56;10310660;28;20268;-63
2021/04/10 07:17:27;;;;;;;15.57;13.98;;;;;;;11.02;72.12;99887.06;10308726;28;20140;-63
2021/04/10 07:22:28;;;;;;;14.65;13.15;;;;;;;11.13;73.13;99897.63;10309288;28;20144;-62
2021/04/10 07:27:29;;;;;;;16.77;15.05;;;;;;;11.23;72.72;99902.97;10318710;28;20413;-63
2021/04/10 07:32:32;;;;;;;16.38;14.88;;;;;;;11.26;72.77;99908.03;10311657;28;20061;-63
2021/04/10 07:37:50;;;;;;;16.60;14.88;;;;;;;11.12;73.36;99906.59;10317537;28;20153;-63
2021/04/10 07:42:52;;;;;;;16.75;15.13;;;;;;;11.03;74.43;99916.22;10323983;28;20188;-63
2021/04/10 07:48:17;;;;;;;17.20;14.88;;;;;;;10.93;73.94;99924.19;10317197;28;20188;-63
2021/04/10 07:53:29;;;;;;;14.95;13.55;;;;;;;10.93;74.45;99918.88;10315333;28;20156;-63
2021/04/10 07:58:34;;;;;;;14.18;12.82;;;;;;;10.94;74.00;99919.69;10321333;28;20124;-63
2021/04/10 08:03:35;;;;;;;12.88;11.50;;;;;;;10.96;73.27;99925.75;10323304;28;20076;-63
2021/04/10 08:08:46;;;;;;;14.93;13.40;;;;;;;10.91;73.43;99939.47;10322840;28;20558;-64
2021/04/10 08:13:58;;;;;;;17.38;15.45;;;;;;;10.81;75.95;99945.72;10319866;28;20136;-63
2021/04/10 08:19:01;;;;;;;23.02;17.58;;;;;;;10.74;76.41;99948.91;10334368;28;20050;-63
2021/04/10 08:24:21;;;;;;;18.90;16.90;;;;;;;10.82;76.48;99944.75;10318230;28;20069;-62
2021/04/10 08:29:23;;;;;;;21.77;19.52;;;;;;;10.86;76.00;99952.31;10314255;28;20049;-62
2021/04/10 08:34:26;;;;;;;22.75;19.42;;;;;;;10.75;76.41;99947.09;10308843;28;20082;-63
2021/04/10 08:39:33;;;;;;;22.25;19.95;;;;;;;10.76;77.26;99951.44;10310305;28;20050;-64
2021/04/10 08:44:35;;;;;;;20.85;18.95;;;;;;;10.87;77.06;99964.69;10328046;28;20132;-63
2021/04/10 08:49:41;;;;;;;22.35;18.17;;;;;;;10.96;76.82;99963.03;10316159;28;20068;-62
2021/04/10 08:54:45;;;;;;;19.90;17.80;;;;;;;11.05;77.33;99972.03;10307577;28;20595;-64
2021/04/10 08:59:48;;;;;;;20.33;17.65;;;;;;;11.09;76.77;99970.78;10305782;28;20054;-62
2021/04/10 09:05:07;;;;;;;20.85;18.65;;;;;;;11.14;77.42;99979.25;10303369;28;20057;-62
2021/04/10 09:10:09;;;;;;;22.92;17.35;;;;;;;11.22;76.48;99975.91;10309148;28;20054;-63
2021/04/10 09:15:25;;;;;;;16.38;14.68;;;;;;;11.30;76.09;99973.38;10308072;28;20057;-63
2021/04/10 09:20:42;;;;;;;14.95;13.23;;;;;;;11.49;75.03;99983.28;10301843;28;20062;-62
2021/04/10 09:25:45;;;;;;;11.57;10.35;;;;;;;11.51;74.43;99975.97;10304298;28;20060;-63
2021/04/10 09:30:46;;;;;;;14.30;11.27;;;;;;;11.80;73.07;99980.53;10307792;28;20137;-63
2021/04/10 09:35:47;;;;;;;10.30;8.95;;;;;;;12.14;72.54;99989.00;10306687;28;20073;-64
2021/04/10 09:40:49;;;;;;;10.25;7.97;;;;;;;12.06;71.49;99990.72;10302019;28;20101;-62
2021/04/10 09:45:51;;;;;;;8.85;7.95;;;;;;;12.03;72.25;99986.50;10308001;28;20353;-63
2021/04/10 09:50:55;;;;;;;11.93;10.82;;;;;;;11.68;73.27;99991.31;10304322;28;20073;-63
2021/04/10 09:55:57;;;;;;;12.23;11.00;;;;;;;11.62;73.48;99999.88;10321548;23;20054;-59
2021/04/10 10:01:03;;;;;;;10.70;8.75;;;;;;;11.36;72.86;99993.34;10310534;28;20064;-58
2021/04/10 10:06:24;;;;;;;9.32;8.43;;;;;;;11.63;72.36;99996.25;10290126;28;21255;-55
2021/04/10 10:11:26;;;;;;;5.85;5.25;;;;;;;11.58;69.47;99981.63;10312798;28;20061;-58
2021/04/10 10:16:29;;;;;;;5.75;5.10;;;;;;;11.48;70.79;99994.91;10290914;28;20176;-60
2021/04/10 10:21:31;;;;;;;4.90;4.30;;;;;;;11.43;70.16;99978.50;10311051;28;20483;-62
2021/04/10 10:26:38;;;;;;;5.13;3.85;;;;;;;11.66;70.01;99990.63;10315100;28;20987;-60
2021/04/10 10:31:46;;;;;;;7.32;5.93;;;;;;;11.68;70.47;99994.00;10291506;28;20084;-60
2021/04/10 10:36:47;;;;;;;5.97;4.30;;;;;;;11.76;69.79;100000.47;10301076;28;20042;-61
2021/04/10 10:41:49;;;;;;;4.88;3.60;;;;;;;11.66;69.52;99979.09;10314194;28;20060;-60
2021/04/10 10:47:00;;;;;;;3.83;3.45;;;;;;;11.48;69.53;99981.59;10315363;28;20546;-56
2021/04/10 10:52:02;;;;;;;4.35;3.33;;;;;;;11.41;70.26;99985.75;10336249;28;20267;-59
2021/04/10 10:57:11;;;;;;;5.82;3.67;;;;;;;11.43;71.08;99978.50;10329263;28;20129;-58
2021/04/10 11:02:30;;;;;;;3.47;3.10;;;;;;;11.46;71.54;99986.22;10319394;28;20046;-61
2021/04/10 11:07:31;;;;;;;4.95;3.42;;;;;;;11.47;72.91;99980.75;10308924;28;20456;-59
2021/04/10 11:12:32;;;;;;;3.53;3.17;;;;;;;11.65;72.39;99980.09;10292597;28;20263;-57
2021/04/10 11:17:33;;;;;;;6.32;3.50;;;;;;;11.73;71.37;99952.75;10294652;28;20054;-61
2021/04/10 11:22:35;;;;;;;5.25;3.00;;;;;;;11.76;72.27;99957.81;10312865;28;20149;-56
2021/04/10 11:27:36;;;;;;;3.53;2.42;;;;;;;11.63;70.74;99956.25;10316547;28;20149;-61
2021/04/10 11:32:44;;;;;;;3.22;2.00;;;;;;;11.56;70.82;99972.91;10319286;28;20053;-60
2021/04/10 11:38:03;;;;;;;2.78;2.40;;;;;;;11.35;71.36;99944.53;10330729;28;20133;-58
2021/04/10 11:43:06;;;;;;;4.85;2.78;;;;;;;11.32;72.22;99945.63;10332451;28;20052;-61
2021/04/10 11:48:22;;;;;;;6.05;2.78;;;;;;;11.46;72.03;99959.56;10319401;28;20450;-59
2021/04/10 11:53:27;;;;;;;5.53;3.83;;;;;;;11.27;71.60;99926.56;10314698;28;20064;-56
2021/04/10 11:58:30;;;;;;;5.22;3.90;;;;;;;11.37;71.20;99949.72;10314876;28;20187;-60
2021/04/10 12:03:31;;;;;;;4.75;2.92;;;;;;;11.36;72.09;99938.19;10335273;28;20049;-59
2021/04/10 12:08:32;;;;;;;5.05;3.38;;;;;;;11.53;72.51;99942.06;10339514;28;20442;-57
2021/04/10 12:13:33;;;;;;;6.00;4.88;;;;;;;11.42;72.46;99940.31;10342322;28;20061;-57
2021/04/10 12:18:34;;;;;;;7.25;4.35;;;;;;;11.47;72.77;99939.94;10334018;28;20057;-56
2021/04/10 12:23:35;;;;;;;4.15;3.42;;;;;;;11.57;73.56;99939.94;10331191;28;20045;-58
2021/04/10 12:28:37;;;;;;;3.30;3.00;;;;;;;11.53;72.95;99915.41;10329246;28;20148;-58
2021/04/10 12:33:41;;;;;;;6.32;3.42;;;;;;;11.72;72.68;99916.38;10340260;28;20053;-60
2021/04/10 12:38:42;;;;;;;6.43;3.73;;;;;;;11.91;72.78;99920.91;10322978;28;20091;-61
2021/04/10 12:43:44;;;;;;;8.75;4.40;;;;;;;11.91;72.87;99913.72;10340227;28;20128;-60
2021/04/10 12:48:46;;;;;;;6.95;3.78;;;;;;;11.92;73.24;99910.09;10338457;28;20062;-59
2021/04/10 12:53:47;;;;;;;4.35;3.92;;;;;;;12.03;72.98;99901.97;10321481;28;20129;-62
2021/04/10 12:58:48;;;;;;;6.88;3.70;;;;;;;12.03;72.88;99903.78;10318836;28;20445;-62
2021/04/10 13:03:49;;;;;;;4.28;3.40;;;;;;;12.09;72.37;99897.88;10312791;28;20042;-60
2021/04/10 13:08:50;;;;;;;4.38;3.25;;;;;;;12.21;72.40;99887.91;10309044;28;20061;-59
2021/04/10 13:13:51;;;;;;;5.20;3.75;;;;;;;12.30;71.74;99878.19;10319148;28;20057;-61
2021/04/10 13:18:52;;;;;;;5.50;3.97;;;;;;;12.39;71.14;99880.00;10335935;28;20426;-57
2021/04/10 13:23:53;;;;;;;4.55;3.15;;;;;;;12.32;70.91;99862.88;10340214;28;20107;-59
2021/04/10 13:28:54;;;;;;;5.47;3.53;;;;;;;12.50;71.31;99874.47;10337311;28;20046;-57
2021/04/10 13:33:55;;;;;;;7.05;3.45;;;;;;;12.35;69.45;99868.75;10341996;28;20076;-57
2021/04/10 13:38:56;;;;;;;4.63;3.25;;;;;;;12.21;69.88;99855.88;10339571;28;20568;-59
2021/04/10 13:43:57;;;;;;;6.55;3.42;;;;;;;12.47;69.30;99866.75;10325538;28;20060;-60
2021/04/10 13:48:59;;;;;;;5.82;3.40;;;;;;;12.48;68.13;99848.94;10338241;28;20290;-57
2021/04/10 13:54:01;;;;;;;3.85;3.40;;;;;;;12.67;67.78;99843.53;10338612;28;20668;-60
2021/04/10 13:59:03;;;;;;;3.50;2.67;;;;;;;12.68;66.84;99836.34;10343037;28;20564;-60
2021/04/10 14:04:04;;;;;;;4.82;3.10;;;;;;;12.44;67.42;99819.00;10339133;28;20467;-56
2021/04/10 14:09:07;;;;;;;4.28;2.72;;;;;;;12.62;66.30;99820.91;10340303;28;20058;-62
2021/04/10 14:14:08;;;;;;;6.00;2.83;;;;;;;12.61;66.41;99814.75;10341348;28;20116;-61
2021/04/10 14:19:10;;;;;;;4.22;3.13;;;;;;;12.72;66.60;99817.19;10310460;28;20073;-57
2021/04/10 14:24:11;;;;;;;4.72;2.53;;;;;;;12.67;65.49;99808.81;10325163;28;20061;-60
2021/04/10 14:29:12;;;;;;;4.82;2.97;;;;;;;12.48;65.30;99792.88;10313263;28;22042;-55
2021/04/10 14:34:13;;;;;;;5.20;3.53;;;;;;;12.67;65.62;99797.25;10312441;28;20081;-62
2021/04/10 14:39:14;;;;;;;4.38;2.97;;;;;;;12.75;64.85;99805.38;10311767;28;20185;-58
2021/04/10 14:44:15;;;;;;;4.53;3.40;;;;;;;12.87;65.29;99800.69;10313923;28;20143;-57
2021/04/10 14:49:16;;;;;;;5.00;3.25;;;;;;;12.82;64.04;99789.59;10300285;28;20056;-61
2021/04/10 14:54:17;;;;;;;3.60;3.00;;;;;;;12.90;63.40;99787.88;10296674;28;20479;-58
2021/04/10 14:59:18;;;;;;;6.80;3.15;;;;;;;12.94;62.39;99780.41;10327187;28;20455;-58
2021/04/10 15:04:19;;;;;;;4.68;2.85;;;;;;;12.80;62.34;99776.38;10336721;28;20132;-59
2021/04/10 15:09:20;;;;;;;4.72;3.13;;;;;;;12.81;62.77;99774.59;10333125;28;20054;-59
2021/04/10 15:14:21;;;;;;;5.00;2.65;;;;;;;12.87;61.67;99779.31;10331448;28;20260;-57
2021/04/10 15:19:22;;;;;;;5.18;3.10;;;;;;;12.62;59.64;99760.31;10334694;28;20105;-60
2021/04/10 15:24:23;;;;;;;3.05;2.53;;;;;;;12.73;60.20;99761.97;10343367;28;20400;-57
2021/04/10 15:29:24;;;;;;;6.07;4.00;;;;;;;12.79;59.33;99752.50;10337340;28;20057;-58
2021/04/10 15:34:25;;;;;;;4.60;3.42;;;;;;;12.86;59.25;99749.06;10334096;28;20569;-59
2021/04/10 15:39:26;;;;;;;6.25;3.00;;;;;;;13.01;59.05;99744.06;10336338;28;20132;-56
2021/04/10 15:44:27;;;;;;;5.07;2.97;;;;;;;13.26;59.11;99745.13;10339915;28;20417;-60
2021/04/10 15:49:28;;;;;;;3.58;2.70;;;;;;;13.23;59.31;99742.78;10328020;28;20113;-62
2021/04/10 15:54:30;;;;;;;4.97;3.20;;;;;;;13.26;59.88;99739.78;10341714;28;20266;-56
2021/04/10 15:59:31;;;;;;;7.03;3.00;;;;;;;13.27;59.90;99737.97;10349260;22;20073;-60
2021/04/10 16:04:32;;;;;;;2.75;2.38;;;;;;;13.44;60.27;99734.47;10316382;28;20370;-61
2021/04/10 16:09:33;;;;;;;4.22;2.97;;;;;;;13.51;59.90;99725.81;10328048;28;20082;-60
2021/04/10 16:14:34;;;;;;;3.47;2.47;;;;;;;13.42;59.89;99728.44;10329123;28;20450;-61
2021/04/10 16:19:36;;;;;;;4.88;2.72;;;;;;;13.24;59.82;99731.09;10334234;28;20259;-61
2021/04/10 16:24:37;;;;;;;3.65;2.60;;;;;;;13.12;60.05;99724.31;10320036;28;20066;-61
2021/04/10 16:29:38;;;;;;;3.72;3.00;;;;;;;12.91;60.65;99724.63;10314866;28;20081;-61
2021/04/10 16:34:40;;;;;;;4.32;2.47;;;;;;;12.81;60.66;99719.31;10318854;28;20068;-60
2021/04/10 16:39:41;;;;;;;4.95;2.80;;;;;;;12.80;60.27;99706.13;10310703;28;20069;-60
2021/04/10 16:44:42;;;;;;;2.97;2.35;;;;;;;12.86;60.87;99710.84;10325976;28;20050;-61
2021/04/10 16:49:44;;;;;;;3.03;2.40;;;;;;;12.98;60.64;99698.94;10323315;28;20419;-60
2021/04/10 16:54:45;;;;;;;4.22;3.20;;;;;;;12.99;60.34;99705.16;10323984;28;20060;-61
2021/04/10 16:59:47;;;;;;;3.92;2.40;;;;;;;12.92;60.57;99704.91;10292629;28;20061;-61
2021/04/10 17:04:48;;;;;;;6.97;4.25;;;;;;;12.89;60.66;99691.84;10311098;28;20060;-61
2021/04/10 17:09:49;;;;;;;7.60;3.08;;;;;;;12.90;60.55;99677.50;10319878;28;20054;-61
2021/04/10 17:14:51;;;;;;;5.68;5.07;;;;;;;12.97;60.45;99680.41;10300521;28;20426;-61
2021/04/10 17:19:52;;;;;;;4.75;2.97;;;;;;;12.98;60.72;99674.91;10318810;28;20049;-62
2021/04/10 17:24:53;;;;;;;2.72;2.45;;;;;;;12.98;60.46;99666.06;10305941;28;20072;-61
2021/04/10 17:29:54;;;;;;;4.57;2.45;;;;;;;12.97;60.38;99662.56;10325116;28;20124;-61
2021/04/10 17:34:55;;;;;;;3.72;2.53;;;;;;;12.91;60.50;99665.84;10311431;28;20072;-60
2021/04/10 17:39:56;;;;;;;5.32;3.17;;;;;;;12.93;60.30;99666.53;10309235;28;20066;-60
2021/04/10 17:44:57;;;;;;;6.07;3.53;;;;;;;12.90;60.28;99664.16;10320747;28;20050;-61
2021/04/10 17:49:58;;;;;;;2.33;2.10;;;;;;;12.89;60.69;99662.47;10321145;28;20538;-61
2021/04/10 17:54:59;;;;;;;5.18;2.70;;;;;;;12.90;61.39;99648.97;10314867;28;20053;-66
2021/04/10 18:00:03;;;;;;;5.50;3.83;;;;;;;12.96;61.06;99652.03;10309605;28;20042;-68
2021/04/10 18:05:05;;;;;;;4.80;3.15;;;;;;;12.93;61.52;99647.81;10307056;28;20054;-67
2021/04/10 18:10:08;;;;;;;5.95;3.42;;;;;;;12.89;61.52;99641.09;10323373;28;20424;-59
2021/04/10 18:15:12;;;;;;;5.38;3.42;;;;;;;12.81;62.01;99633.84;10318797;28;20054;-60
2021/04/10 18:20:14;;;;;;;8.13;4.33;;;;;;;12.77;62.25;99645.84;10325867;28;20048;-66
2021/04/10 18:25:15;;;;;;;5.10;3.92;;;;;;;12.78;62.73;99638.69;10325538;28;20324;-65
2021/04/10 18:30:20;;;;;;;5.90;3.83;;;;;;;12.80;62.68;99637.50;10321878;28;20181;-65
2021/04/10 18:35:22;;;;;;;5.40;3.90;;;;;;;12.79;62.75;99645.69;10323868;28;20053;-61
2021/04/10 18:40:23;;;;;;;5.07;3.97;;;;;;;12.76;63.03;99651.31;10323571;28;20062;-67
2021/04/10 18:45:24;;;;;;;5.07;3.67;;;;;;;12.69;63.61;99643.94;10319312;28;20495;-62
2021/04/10 18:50:25;;;;;;;7.50;4.80;;;;;;;12.71;63.49;99639.25;10305908;28;20050;-65
2021/04/10 18:55:26;;;;;;;7.65;5.00;;;;;;;12.72;63.80;99645.47;10308594;28;20535;-63
2021/04/10 19:00:27;;;;;;;6.95;5.47;;;;;;;12.70;64.09;99652.75;10322569;28;20049;-65
2021/04/10 19:05:28;;;;;;;5.15;4.30;;;;;;;12.67;64.29;99669.94;10321379;28;20077;-66
2021/04/10 19:10:29;;;;;;;5.80;4.38;;;;;;;12.65;64.72;99676.44;10306514;28;20049;-67
2021/04/10 19:15:30;;;;;;;5.05;4.55;;;;;;;12.69;64.92;99664.47;10326029;28;20049;-63
2021/04/10 19:20:31;;;;;;;6.88;5.45;;;;;;;12.69;64.95;99667.97;10332197;28;20052;-68
2021/04/10 19:25:35;;;;;;;5.57;4.97;;;;;;;12.67;64.86;99653.06;10329704;28;20061;-61
2021/04/10 19:30:37;;;;;;;7.28;5.28;;;;;;;12.72;64.59;99635.59;10327717;28;20491;-61
2021/04/10 19:35:38;;;;;;;6.88;5.88;;;;;;;12.64;65.18;99643.56;10327061;28;20515;-60
2021/04/10 19:40:39;;;;;;;6.95;6.03;;;;;;;12.67;64.82;99653.06;10328408;28;20050;-60
2021/04/10 19:45:40;;;;;;;7.88;6.65;;;;;;;12.63;65.68;99641.88;10321610;28;20061;-61
2021/04/10 19:50:41;;;;;;;7.60;6.60;;;;;;;12.55;65.73;99634.63;10325956;28;20046;-61
2021/04/10 19:55:43;;;;;;;7.35;6.60;;;;;;;12.57;65.81;99637.13;10319600;28;20053;-61
2021/04/10 20:00:44;;;;;;;8.18;7.38;;;;;;;12.55;66.22;99629.28;10332015;28;20135;-61
2021/04/10 20:05:45;;;;;;;8.48;7.47;;;;;;;12.55;66.27;99623.94;10331212;28;20466;-59
2021/04/10 20:10:46;;;;;;;8.07;6.80;;;;;;;12.58;66.57;99625.47;10331977;28;20073;-61
2021/04/10 20:15:47;;;;;;;8.20;7.45;;;;;;;12.65;66.30;99626.53;10312132;28;20077;-61
2021/04/10 20:20:48;;;;;;;11.35;9.38;;;;;;;12.58;67.03;99614.81;10331400;28;20179;-60
2021/04/10 20:25:49;;;;;;;9.77;7.53;;;;;;;12.58;68.04;99612.13;10310564;28;20054;-60
2021/04/10 20:30:52;;;;;;;11.40;9.13;;;;;;;12.54;68.57;99605.41;10329436;28;20057;-62
2021/04/10 20:35:53;;;;;;;9.73;8.73;;;;;;;12.61;67.60;99617.16;10310045;28;20077;-61
2021/04/10 20:40:54;;;;;;;8.48;7.68;;;;;;;12.22;69.17;99601.41;10313526;28;20058;-60
2021/04/10 20:45:55;;;;;;;11.23;9.05;;;;;;;12.33;69.12;99590.50;10309929;28;20057;-60
2021/04/10 20:50:56;;;;;;;8.60;7.75;;;;;;;12.34;69.14;99584.19;10328924;28;20065;-61
2021/04/10 20:55:57;;;;;;;9.45;7.78;;;;;;;12.38;69.16;99598.06;10318827;28;20103;-61
2021/04/10 21:00:59;;;;;;;9.52;7.88;;;;;;;12.36;69.71;99587.53;10339611;28;20058;-60
2021/04/10 21:06:01;;;;;;;9.68;7.55;;;;;;;12.34;69.15;99586.88;10362968;28;20058;-60
2021/04/10 21:11:02;;;;;;;9.05;7.57;;;;;;;12.32;69.08;99566.66;10355840;28;20096;-61
2021/04/10 21:16:04;;;;;;;10.10;7.72;;;;;;;12.31;68.89;99563.16;10355671;28;20113;-61
2021/04/10 21:21:06;;;;;;;8.10;6.82;;;;;;;12.26;68.11;99554.75;10317830;28;20057;-60
2021/04/10 21:26:08;;;;;;;10.18;7.40;;;;;;;12.17;68.59;99544.97;10330049;28;20454;-62
2021/04/10 21:31:14;;;;;;;9.40;8.50;;;;;;;12.12;69.23;99536.59;10328667;28;20068;-60
2021/04/10 21:36:20;;;;;;;8.35;7.45;;;;;;;12.20;68.25;99539.34;10325107;28;20045;-61
2021/04/10 21:41:27;;;;;;;10.20;9.20;;;;;;;12.21;68.61;99530.34;10324698;28;21037;-60
2021/04/10 21:46:31;;;;;;;10.17;7.63;;;;;;;12.26;68.34;99536.06;10326736;28;20486;-60
2021/04/10 21:51:36;;;;;;;9.83;7.30;;;;;;;12.29;68.69;99533.09;10312293;28;20825;-60
2021/04/10 21:56:37;;;;;;;;;;;;;;;12.24;68.77;99521.22;10308462;28;20127;-61
2021/04/10 22:01:38;;;;;;;7.97;7.07;;;;;;;12.27;68.62;99524.41;10308505;28;19925;-61
2021/04/10 22:06:40;;;;;;;7.80;6.95;;;;;;;12.25;68.48;99520.22;10328154;28;20057;-61
2021/04/10 22:11:43;;;;;;;8.30;7.28;;;;;;;12.22;68.52;99521.38;10323517;28;20104;-60
2021/04/10 22:16:47;;;;;;;8.80;7.90;;;;;;;12.23;68.76;99522.19;10306194;28;20085;-63
2021/04/10 22:21:49;;;;;;;9.23;8.10;;;;;;;12.23;69.17;99528.38;10308525;28;20415;-61
2021/04/10 22:26:50;;;;;;;10.75;9.75;;;;;;;12.20;69.33;99526.88;10319673;28;20168;-60
2021/04/10 22:31:51;;;;;;;9.68;8.68;;;;;;;12.19;69.44;99533.19;10333144;28;20500;-61
2021/04/10 22:36:52;;;;;;;10.48;8.98;;;;;;;12.31;69.04;99525.78;10369493;28;20044;-61
2021/04/10 22:41:53;;;;;;;8.63;7.72;;;;;;;12.24;69.38;99516.72;10358533;28;20069;-61
2021/04/10 22:46:55;;;;;;;8.00;7.20;;;;;;;12.16;69.40;99504.13;10367060;28;20065;-62
2021/04/10 22:51:56;;;;;;;9.15;8.25;;;;;;;12.09;69.71;99489.72;10363256;28;20056;-60
2021/04/10 22:56:57;;;;;;;7.85;7.00;;;;;;;12.12;69.64;99496.59;10366694;28;20058;-61
2021/04/10 23:01:58;;;;;;;7.95;7.15;;;;;;;12.12;69.52;99491.25;10360869;28;20133;-61
2021/04/10 23:06:59;;;;;;;8.23;7.03;;;;;;;12.15;69.45;99498.94;10366782;28;20053;-61
2021/04/10 23:12:02;;;;;;;7.22;6.47;;;;;;;12.10;69.69;99490.53;10377625;28;20342;-61
2021/04/10 23:17:07;;;;;;;7.07;6.38;;;;;;;12.03;69.79;99490.34;10375959;28;20399;-60
2021/04/10 23:22:08;;;;;;;7.97;7.18;;;;;;;11.94;69.99;99484.06;10377404;28;20061;-61